Stations météo

réclame
Mon MeteoGroup
Isola Stromboli, Italie (16416): Température de l'air & dewpoint: 17.02.2020 05:00:00 - 23.02.2020 05:00:00 (CET)Isola Stromboli, Italie (16416): Vitesse du vent: 17.02.2020 05:00:00 - 23.02.2020 05:00:00 (CET)Isola Stromboli, Italie (16416): Direction du vent: 17.02.2020 05:00:00 - 23.02.2020 05:00:00 (CET)Isola Stromboli, Italie (16416): reduced air pressure: 17.02.2020 05:00:00 - 23.02.2020 05:00:00 (CET)Isola Stromboli, Italie (16416): Quantités de précipitations: 17.02.2020 05:00:00 - 23.02.2020 05:00:00 (CET)
Date & Time tt [°C] td [°C] ff [km/h] ff [knt] dd ppp [hPa] rr [mm]
23.02.2020 05:00:00 11,8 3,0 13 7 S 1030,4 -
23.02.2020 04:00:00 11,0 0,0 2 1 S 1030,6 -
23.02.2020 03:00:00 10,7 0,3 0 0 N 1031,0 -
23.02.2020 02:00:00 10,0 0,2 0 0 N 1031,5 -
23.02.2020 01:00:00 10,5 0,7 0 0 N 1031,6 0,0
23.02.2020 00:00:00 11,3 2,5 2 1 S 1032,1 -
22.02.2020 23:00:00 11,6 3,0 2 1 S 1031,7 -
22.02.2020 22:00:00 11,7 3,9 0 0 N 1031,0 -
22.02.2020 21:00:00 12,3 5,2 8 4 S 1030,3 -
22.02.2020 20:00:00 13,2 6,5 18 10 S 1030,0 -
22.02.2020 19:00:00 12,9 5,2 18 10 S 1029,8 0,0
22.02.2020 18:00:00 12,7 3,8 18 10 S 1029,6 -
22.02.2020 17:00:00 12,7 3,5 15 8 S 1029,2 -
22.02.2020 16:00:00 13,1 3,1 16 9 S 1029,0 -
22.02.2020 15:00:00 14,0 3,6 18 10 S 1028,8 -
22.02.2020 14:00:00 14,2 3,3 15 8 S 1028,7 -
22.02.2020 13:00:00 14,5 2,3 16 9 S 1028,4 0,0
22.02.2020 12:00:00 14,8 4,1 18 10 S 1028,8 -
22.02.2020 11:00:00 13,8 5,1 18 10 S 1028,6 -
22.02.2020 10:00:00 13,5 1,1 28 15 S 1027,9 -
22.02.2020 09:00:00 13,0 4,6 21 11 S 1027,7 -
22.02.2020 08:00:00 12,6 8,6 9 5 S 1027,4 -
22.02.2020 07:00:00 11,7 7,2 9 5 S 1026,6 0,0
22.02.2020 06:00:00 11,8 7,7 11 6 S 1026,5 -
22.02.2020 05:00:00 11,4 7,3 9 5 S 1025,8 -
22.02.2020 04:00:00 11,5 7,4 9 5 S 1025,3 -
22.02.2020 03:00:00 11,5 7,9 5 3 S 1025,2 -
22.02.2020 02:00:00 11,5 7,8 5 3 S 1025,6 -
22.02.2020 01:00:00 11,2 7,5 8 4 S 1025,7 0,0
22.02.2020 00:00:00 11,5 7,8 9 5 S 1026,0 -
21.02.2020 23:00:00 11,2 7,3 9 5 S 1025,9 -
21.02.2020 22:00:00 11,3 4,7 13 7 S 1025,7 -
21.02.2020 21:00:00 11,0 3,0 8 4 S 1025,2 -
21.02.2020 20:00:00 11,1 5,6 9 5 S 1025,1 -
21.02.2020 19:00:00 11,4 7,1 11 6 S 1024,9 0,0
21.02.2020 18:00:00 12,0 7,3 9 5 S 1024,9 -
21.02.2020 17:00:00 12,4 7,6 11 6 S 1024,4 -
21.02.2020 16:00:00 12,8 7,8 11 6 S 1024,4 -
21.02.2020 15:00:00 13,1 8,1 11 6 S 1024,4 -
21.02.2020 14:00:00 13,9 8,0 15 8 S 1024,6 -
21.02.2020 13:00:00 14,0 7,7 15 8 S 1025,1 0,0
21.02.2020 12:00:00 14,0 7,7 18 10 S 1025,5 -
21.02.2020 11:00:00 13,3 6,1 16 9 S 1025,4 -
21.02.2020 10:00:00 13,3 5,6 11 6 S 1025,0 -
21.02.2020 09:00:00 12,6 5,0 15 8 S 1024,8 -
21.02.2020 08:00:00 11,6 4,7 9 5 S 1024,5 -
21.02.2020 07:00:00 11,0 4,2 13 7 S 1024,0 0,0
21.02.2020 06:00:00 10,7 3,9 11 6 S 1024,0 -
21.02.2020 05:00:00 11,5 3,9 16 9 S 1023,6 -
21.02.2020 04:00:00 11,8 4,4 24 13 S 1023,2 -
21.02.2020 03:00:00 12,0 4,6 24 13 S 1023,2 -
21.02.2020 02:00:00 12,1 3,2 21 11 S 1023,6 -
21.02.2020 01:00:00 12,0 2,4 16 9 S 1023,9 0,0
21.02.2020 00:00:00 12,3 2,1 18 10 S 1023,7 -
20.02.2020 23:00:00 12,6 3,4 18 10 S 1023,4 -
20.02.2020 22:00:00 13,1 5,4 28 15 S 1023,2 -
20.02.2020 21:00:00 13,0 4,9 29 16 S 1022,7 -
20.02.2020 20:00:00 13,0 4,9 28 15 S 1022,7 -
20.02.2020 19:00:00 12,8 4,7 24 13 S 1022,2 0,0
20.02.2020 18:00:00 12,7 6,0 28 15 S 1021,5 -
20.02.2020 17:00:00 12,8 5,4 22 12 S 1021,1 -
20.02.2020 16:00:00 12,9 6,2 28 15 S 1020,7 -
20.02.2020 15:00:00 13,3 6,3 26 14 S 1020,5 -
20.02.2020 14:00:00 14,0 6,3 28 15 S 1020,6 -
20.02.2020 13:00:00 14,4 6,9 21 11 S 1020,8 0,0
20.02.2020 12:00:00 14,1 8,9 16 9 S 1021,1 -
20.02.2020 11:00:00 14,3 10,1 16 9 S 1021,2 -
20.02.2020 10:00:00 14,0 9,8 18 10 S 1020,9 -
20.02.2020 09:00:00 13,5 9,7 22 12 S 1020,6 -
20.02.2020 08:00:00 13,0 8,0 24 13 S 1020,0 -
20.02.2020 07:00:00 12,8 8,4 26 14 S 1019,3 0,0
20.02.2020 06:00:00 12,9 9,5 31 17 S 1018,6 -
20.02.2020 05:00:00 13,1 9,3 35 19 S 1018,3 -
20.02.2020 04:00:00 13,1 9,9 37 20 S 1018,1 -
20.02.2020 03:00:00 11,8 9,3 34 18 S 1018,2 -
20.02.2020 02:00:00 13,2 9,4 37 20 S 1018,3 -
20.02.2020 01:00:00 13,1 8,1 34 18 S 1018,9 0,0
20.02.2020 00:00:00 13,2 9,4 22 12 S 1019,2 -
19.02.2020 23:00:00 12,9 8,9 16 9 S 1019,7 -
19.02.2020 22:00:00 12,7 7,9 24 13 S 1019,9 -
19.02.2020 21:00:00 12,9 8,5 18 10 S 1019,8 -
19.02.2020 20:00:00 12,9 8,9 22 12 S 1020,0 -
19.02.2020 19:00:00 13,0 10,0 22 12 S 1019,8 0,0
19.02.2020 18:00:00 13,1 9,7 9 5 S 1019,7 -
19.02.2020 17:00:00 13,5 10,3 26 14 S 1019,6 -
19.02.2020 16:00:00 13,6 10,2 21 11 S 1020,2 -
19.02.2020 15:00:00 13,6 10,6 24 13 S 1020,8 -
19.02.2020 14:00:00 13,7 10,7 9 5 S 1021,4 -
19.02.2020 13:00:00 14,3 10,1 13 7 S 1022,0 0,0
19.02.2020 12:00:00 14,2 10,6 13 7 S 1022,6 -
19.02.2020 11:00:00 14,1 10,3 9 5 S 1022,8 -
19.02.2020 10:00:00 13,8 9,8 9 5 S 1022,8 -
19.02.2020 09:00:00 13,5 9,7 11 6 S 1022,6 -
19.02.2020 08:00:00 12,8 9,4 13 7 S 1022,4 -
19.02.2020 07:00:00 12,2 10,2 13 7 S 1022,5 0,0
19.02.2020 06:00:00 12,3 10,2 15 8 S 1022,4 -
19.02.2020 05:00:00 12,8 9,6 9 5 S 1022,3 -
19.02.2020 04:00:00 12,8 9,4 13 7 S 1022,5 -
19.02.2020 03:00:00 12,7 8,3 9 5 S 1023,2 -
19.02.2020 02:00:00 12,3 8,3 5 3 S 1023,6 -
19.02.2020 01:00:00 12,3 8,3 4 2 S 1023,9 0,0
19.02.2020 00:00:00 11,5 6,6 4 2 S 1024,1 -
18.02.2020 23:00:00 11,3 6,8 9 5 S 1024,3 -
18.02.2020 22:00:00 11,8 7,3 8 4 S 1024,4 -
18.02.2020 21:00:00 11,8 7,7 5 3 S 1024,3 -
18.02.2020 20:00:00 11,4 7,5 8 4 S 1024,3 -
18.02.2020 19:00:00 11,5 7,4 9 5 S 1024,1 0,0
18.02.2020 18:00:00 11,8 7,5 8 4 S 1023,9 -
18.02.2020 17:00:00 12,4 7,8 11 6 S 1023,6 -
18.02.2020 16:00:00 12,7 8,1 13 7 S 1023,6 -
18.02.2020 15:00:00 12,7 7,7 13 7 S 1023,7 -
18.02.2020 14:00:00 13,1 7,7 11 6 S 1024,3 -
18.02.2020 13:00:00 13,6 8,6 15 8 S 1024,8 0,0
18.02.2020 12:00:00 13,4 8,2 15 8 S 1025,4 -
18.02.2020 11:00:00 13,3 8,3 11 6 S 1025,9 -
18.02.2020 10:00:00 13,3 8,5 9 5 S 1025,8 -
18.02.2020 09:00:00 12,8 7,6 9 5 S 1025,9 -
18.02.2020 08:00:00 12,4 7,2 5 3 S 1025,8 -
18.02.2020 07:00:00 11,9 7,6 11 6 S 1025,5 0,0
18.02.2020 06:00:00 12,0 7,5 9 5 S 1025,3 -
18.02.2020 05:00:00 12,0 7,1 9 5 S 1025,6 -
18.02.2020 04:00:00 11,9 7,2 8 4 S 1025,6 -
18.02.2020 03:00:00 11,6 7,3 4 2 S 1025,9 -
18.02.2020 02:00:00 11,7 7,6 5 3 S 1026,3 -
18.02.2020 01:00:00 11,2 7,5 8 4 S 1026,5 0,0
18.02.2020 00:00:00 10,8 7,4 8 4 S 1026,6 -
17.02.2020 23:00:00 10,6 7,8 8 4 S 1026,9 -
17.02.2020 22:00:00 10,0 6,7 5 3 S 1027,4 -
17.02.2020 21:00:00 10,3 6,4 2 1 S 1027,4 -
17.02.2020 20:00:00 10,3 6,4 4 2 S 1027,4 -
17.02.2020 19:00:00 11,2 7,5 9 5 S 1027,6 0,0
17.02.2020 18:00:00 11,6 7,7 9 5 S 1027,2 -
17.02.2020 17:00:00 12,0 7,9 9 5 S 1027,1 -
17.02.2020 16:00:00 12,5 7,5 8 4 S 1027,1 -
17.02.2020 15:00:00 13,6 8,2 11 6 S 1027,0 -
17.02.2020 14:00:00 13,8 7,9 11 6 S 1027,7 -
17.02.2020 13:00:00 15,0 9,1 4 2 S 1028,4 0,0
17.02.2020 12:00:00 - - - - - - -
17.02.2020 11:00:00 13,6 8,0 11 6 S 1029,6 -
17.02.2020 10:00:00 13,3 7,9 2 1 S 1029,3 -
17.02.2020 09:00:00 14,0 9,6 0 0 N 1029,4 -
17.02.2020 08:00:00 12,4 8,4 0 0 N 1029,3 -
17.02.2020 07:00:00 10,4 6,7 0 0 N 1029,2 0,0
17.02.2020 06:00:00 10,5 6,8 9 5 S 1029,1 -
17.02.2020 05:00:00 10,2 5,7 5 3 S 1028,9 -

tt = Température de l'air
td = dewpoint
ff = Vitesse du vent
dd = Direction du vent
ppp = reduced air pressure
rr = Quantités de précipitations

stations d'obs. à proximité